Time;durP1;ratioP1;P1;durP2;ratioP2;P2;SDS_P1;SDS_P2;PMS_P1;PMS_P2;Temp;Humidity;BMP_temperature;BMP_pressure;BME280_temperature;BME280_humidity;BME280_pressure;Samples;Min_cycle;Max_cycle;Signal;HPM_P1;HPM_P2
2021/05/04 00:00:14;;;;;;;10.60;7.07;;;8.50;99.90;;;;;;5054198;28;20450;-57
2021/05/04 00:02:40;;;;;;;5.37;4.80;;;8.50;99.90;;;;;;5054182;28;20444;-53
2021/05/04 00:05:07;;;;;;;5.77;4.57;;;8.50;99.90;;;;;;5054389;28;20452;-55
2021/05/04 00:07:33;;;;;;;7.10;5.50;;;8.50;99.90;;;;;;5053944;28;20456;-54
2021/05/04 00:10:00;;;;;;;7.70;5.73;;;8.40;99.90;;;;;;5054385;28;20444;-57
2021/05/04 00:12:27;;;;;;;9.67;5.57;;;8.50;99.90;;;;;;5053978;28;20510;-56
2021/05/04 00:14:53;;;;;;;8.77;5.60;;;8.50;99.90;;;;;;5054212;28;20440;-55
2021/05/04 00:17:19;;;;;;;6.00;5.20;;;8.40;99.90;;;;;;5053242;28;20511;-52
2021/05/04 00:19:45;;;;;;;5.70;4.53;;;8.50;99.90;;;;;;5053657;28;20420;-54
2021/05/04 00:22:12;;;;;;;6.07;4.77;;;8.50;99.90;;;;;;5053480;28;20456;-57
2021/05/04 00:24:40;;;;;;;7.93;4.60;;;8.40;99.90;;;;;;5053763;28;20416;-54
2021/05/04 00:27:06;;;;;;;8.00;5.70;;;8.50;99.90;;;;;;5058153;28;20885;-55
2021/05/04 00:29:33;;;;;;;6.43;5.10;;;8.40;99.90;;;;;;5057910;28;20474;-53
2021/05/04 00:31:59;;;;;;;5.33;4.43;;;8.40;99.90;;;;;;5057348;28;20440;-55
2021/05/04 00:34:25;;;;;;;4.97;4.47;;;8.30;99.90;;;;;;5057452;28;20451;-57
2021/05/04 00:36:51;;;;;;;6.10;4.47;;;8.30;99.90;;;;;;5057502;28;20507;-58
2021/05/04 00:39:19;;;;;;;4.90;4.37;;;8.30;99.90;;;;;;5057893;28;20444;-52
2021/05/04 00:41:45;;;;;;;8.00;4.80;;;8.20;99.90;;;;;;5058023;28;20428;-56
2021/05/04 00:44:11;;;;;;;7.80;5.13;;;8.20;99.90;;;;;;5057913;28;20834;-58
2021/05/04 00:46:38;;;;;;;5.20;4.57;;;8.10;99.90;;;;;;5057949;28;20464;-56
2021/05/04 00:49:05;;;;;;;5.23;4.73;;;8.20;99.90;;;;;;5057676;28;20452;-56
2021/05/04 00:51:31;;;;;;;4.40;3.97;;;8.20;99.90;;;;;;5057972;28;20444;-53
2021/05/04 00:53:57;;;;;;;5.53;4.70;;;8.20;99.90;;;;;;5057528;28;20450;-58
2021/05/04 00:56:24;;;;;;;5.67;3.97;;;8.30;99.90;;;;;;5058027;28;21094;-54
2021/05/04 00:58:52;;;;;;;5.10;4.23;;;8.30;99.90;;;;;;5058024;28;20451;-56
2021/05/04 01:01:21;;;;;;;5.13;4.20;;;8.30;99.90;;;;;;5057516;28;20443;-56
2021/05/04 01:03:50;;;;;;;6.53;4.27;;;8.40;99.90;;;;;;5057636;28;20464;-55
2021/05/04 01:06:16;;;;;;;7.07;4.27;;;8.40;99.90;;;;;;5057805;28;20421;-56
2021/05/04 01:08:43;;;;;;;3.97;3.57;;;8.40;99.90;;;;;;5058088;28;20447;-55
2021/05/04 01:11:09;;;;;;;3.83;3.50;;;8.50;99.90;;;;;;5057331;28;20511;-52
2021/05/04 01:13:35;;;;;;;4.50;3.63;;;8.50;99.90;;;;;;5057448;28;20506;-55
2021/05/04 01:16:01;;;;;;;6.07;4.10;;;8.50;99.90;;;;;;5056917;28;20483;-56
2021/05/04 01:18:30;;;;;;;4.17;3.77;;;8.40;99.90;;;;;;5057341;28;20428;-55
2021/05/04 01:20:57;;;;;;;4.63;4.10;;;8.40;99.90;;;;;;5057028;28;20440;-55
2021/05/04 01:23:23;;;;;;;5.33;4.73;;;8.40;99.90;;;;;;5056568;28;20444;-55
2021/05/04 01:25:49;;;;;;;4.90;4.40;;;8.40;99.90;;;;;;5057096;28;20452;-52
2021/05/04 01:28:15;;;;;;;5.00;3.90;;;8.50;99.90;;;;;;5057107;28;20444;-56
2021/05/04 01:30:41;;;;;;;7.90;4.33;;;8.50;99.90;;;;;;5056994;28;20440;-57
2021/05/04 01:33:08;;;;;;;6.30;4.10;;;8.50;99.90;;;;;;5056922;28;20448;-51
2021/05/04 01:35:34;;;;;;;6.73;3.87;;;8.40;99.90;;;;;;5056445;28;20494;-56
2021/05/04 01:38:01;;;;;;;4.60;4.20;;;8.40;99.90;;;;;;5055739;28;20494;-54
2021/05/04 01:40:28;;;;;;;6.73;4.03;;;8.40;99.90;;;;;;5057180;28;20444;-56
2021/05/04 01:42:54;;;;;;;4.93;3.83;;;8.40;99.90;;;;;;5056833;28;20428;-49
2021/05/04 01:45:21;;;;;;;5.23;4.73;;;8.40;99.90;;;;;;5056891;28;20444;-52
2021/05/04 01:47:47;;;;;;;4.53;4.00;;;8.40;99.90;;;;;;5056852;28;20448;-51
2021/05/04 01:50:14;;;;;;;4.40;4.00;;;8.30;99.90;;;;;;5056895;28;20441;-53
2021/05/04 01:52:41;;;;;;;7.00;4.03;;;8.30;99.90;;;;;;5057085;28;20448;-52
2021/05/04 01:55:09;;;;;;;7.10;5.03;;;8.20;99.90;;;;;;5055959;28;20440;-53
2021/05/04 01:57:36;;;;;;;5.20;3.63;;;8.30;99.90;;;;;;5056238;28;20488;-52
2021/05/04 02:00:04;;;;;;;6.17;4.63;;;8.30;99.90;;;;;;5056139;28;20470;-53
2021/05/04 02:02:31;;;;;;;5.90;4.80;;;8.30;99.90;;;;;;5055792;28;20479;-53
2021/05/04 02:04:57;;;;;;;4.80;3.77;;;8.30;99.90;;;;;;5055584;28;20444;-55
2021/05/04 02:07:23;;;;;;;4.77;3.97;;;8.30;99.90;;;;;;5056203;28;20498;-56
2021/05/04 02:09:49;;;;;;;5.10;4.27;;;8.30;99.90;;;;;;5056065;28;20445;-54
2021/05/04 02:12:18;;;;;;;5.10;4.20;;;8.30;99.90;;;;;;5056014;28;20444;-52
2021/05/04 02:14:44;;;;;;;6.60;4.20;;;8.30;99.90;;;;;;5056172;28;20454;-56
2021/05/04 02:17:10;;;;;;;5.93;4.60;;;8.30;99.90;;;;;;5056212;28;20480;-54
2021/05/04 02:19:37;;;;;;;5.00;4.50;;;8.30;99.90;;;;;;5055741;28;20435;-55
2021/05/04 02:22:05;;;;;;;4.50;3.87;;;8.20;99.90;;;;;;5055824;28;20455;-56
2021/05/04 02:24:31;;;;;;;4.80;4.30;;;8.20;99.90;;;;;;5056238;28;20444;-54
2021/05/04 02:26:57;;;;;;;7.83;4.40;;;8.20;99.90;;;;;;5056436;28;20503;-57
2021/05/04 02:29:24;;;;;;;6.50;5.33;;;8.20;99.90;;;;;;5056222;28;20470;-56
2021/05/04 02:31:51;;;;;;;5.10;3.93;;;8.30;99.90;;;;;;5056358;28;20448;-55
2021/05/04 02:34:17;;;;;;;5.00;3.70;;;8.30;99.90;;;;;;5055938;28;20448;-54
2021/05/04 02:36:43;;;;;;;5.27;4.37;;;8.30;99.90;;;;;;5055709;28;20484;-58
2021/05/04 02:39:09;;;;;;;4.73;4.33;;;8.40;99.90;;;;;;5056474;28;20440;-54
2021/05/04 02:41:36;;;;;;;8.00;4.50;;;8.50;99.90;;;;;;5055757;28;20508;-55
2021/05/04 02:44:03;;;;;;;5.10;3.70;;;8.40;99.90;;;;;;5056018;28;20540;-54
2021/05/04 02:46:30;;;;;;;5.27;4.60;;;8.30;99.90;;;;;;5056057;28;20451;-57
2021/05/04 02:48:57;;;;;;;4.83;4.40;;;8.40;99.90;;;;;;5055977;28;20455;-56
2021/05/04 02:51:24;;;;;;;5.87;4.53;;;8.40;99.90;;;;;;5055683;28;20815;-49
2021/05/04 02:53:50;;;;;;;5.50;4.80;;;8.40;99.90;;;;;;5055172;28;20479;-57
2021/05/04 02:56:17;;;;;;;5.03;4.20;;;8.40;99.90;;;;;;5055493;28;20475;-57
2021/05/04 02:58:43;;;;;;;5.10;4.70;;;8.40;99.90;;;;;;5055131;28;20455;-55
2021/05/04 03:01:09;;;;;;;4.43;3.90;;;8.30;99.90;;;;;;5055186;28;20443;-53
2021/05/04 03:03:36;;;;;;;6.90;5.23;;;8.40;99.90;;;;;;5055487;28;20468;-52
2021/05/04 03:06:04;;;;;;;5.57;4.97;;;8.30;99.90;;;;;;5055532;28;20479;-56
2021/05/04 03:08:30;;;;;;;6.97;4.83;;;8.20;99.90;;;;;;5055321;28;20459;-54
2021/05/04 03:10:57;;;;;;;6.20;5.03;;;8.20;99.90;;;;;;5055434;28;20432;-57
2021/05/04 03:13:24;;;;;;;6.03;4.43;;;8.20;99.90;;;;;;5055504;28;20440;-53
2021/05/04 03:15:50;;;;;;;5.20;4.17;;;8.20;99.90;;;;;;5055394;28;20510;-56
2021/05/04 03:18:16;;;;;;;6.10;4.87;;;8.20;99.90;;;;;;5055171;28;20451;-52
2021/05/04 03:20:43;;;;;;;7.43;4.93;;;8.20;99.90;;;;;;5054920;28;20431;-54
2021/05/04 03:23:10;;;;;;;7.90;4.87;;;8.20;99.90;;;;;;5054458;28;20909;-55
2021/05/04 03:25:36;;;;;;;8.00;5.17;;;8.20;99.90;;;;;;5054772;28;20998;-53
2021/05/04 03:28:02;;;;;;;6.00;4.30;;;8.20;99.90;;;;;;5055309;28;20440;-50
2021/05/04 03:30:29;;;;;;;5.53;4.50;;;8.20;99.90;;;;;;5055291;28;20455;-53
2021/05/04 03:32:55;;;;;;;7.03;5.87;;;8.10;99.90;;;;;;5054801;28;20447;-53
2021/05/04 03:35:22;;;;;;;7.80;5.63;;;8.20;99.90;;;;;;5055372;28;20432;-56
2021/05/04 03:37:49;;;;;;;8.93;6.20;;;8.20;99.90;;;;;;5055113;28;20475;-55
2021/05/04 03:40:16;;;;;;;5.40;4.63;;;8.20;99.90;;;;;;5055128;28;20476;-53
2021/05/04 03:42:42;;;;;;;7.13;5.37;;;8.20;99.90;;;;;;5055194;28;20474;-55
2021/05/04 03:45:11;;;;;;;6.30;5.17;;;8.20;99.90;;;;;;5055081;28;20436;-56
2021/05/04 03:47:39;;;;;;;7.67;5.73;;;8.20;99.90;;;;;;5055372;28;20452;-57
2021/05/04 03:50:07;;;;;;;10.80;5.57;;;8.20;99.90;;;;;;5055225;28;20594;-55
2021/05/04 03:52:33;;;;;;;8.40;5.77;;;8.20;99.90;;;;;;5055681;28;20440;-57
2021/05/04 03:55:00;;;;;;;7.60;5.23;;;8.20;99.90;;;;;;5054273;28;20444;-55
2021/05/04 03:57:26;;;;;;;7.60;5.50;;;8.20;99.90;;;;;;5054596;28;20486;-55
2021/05/04 03:59:52;;;;;;;7.33;5.43;;;8.30;99.90;;;;;;5054417;28;20455;-57
2021/05/04 04:02:19;;;;;;;6.90;5.37;;;8.30;99.90;;;;;;5054818;28;20482;-54
2021/05/04 04:04:45;;;;;;;6.20;5.23;;;8.30;99.90;;;;;;5054677;28;20468;-60
2021/05/04 04:07:11;;;;;;;9.33;5.80;;;8.30;99.90;;;;;;5055197;28;20456;-53
2021/05/04 04:09:37;;;;;;;8.30;5.20;;;8.40;99.90;;;;;;5054891;28;20424;-55
2021/05/04 04:12:05;;;;;;;6.70;5.23;;;8.40;99.90;;;;;;5053952;28;21028;-54
2021/05/04 04:14:32;;;;;;;7.10;6.20;;;8.30;99.90;;;;;;5053987;28;20447;-52
2021/05/04 04:16:58;;;;;;;8.00;5.93;;;8.40;99.90;;;;;;5054022;28;20484;-53
2021/05/04 04:19:24;;;;;;;7.23;5.73;;;8.40;99.90;;;;;;5054303;28;20474;-55
2021/05/04 04:21:50;;;;;;;6.50;5.20;;;8.40;99.90;;;;;;5054917;28;20444;-54
2021/05/04 04:24:17;;;;;;;7.30;5.37;;;8.40;99.90;;;;;;5054606;28;20449;-54
2021/05/04 04:26:43;;;;;;;7.50;6.00;;;8.40;99.90;;;;;;5053723;28;20424;-56
2021/05/04 04:29:11;;;;;;;7.13;5.80;;;8.60;99.90;;;;;;5054247;28;20471;-55
2021/05/04 04:31:37;;;;;;;7.23;5.83;;;8.60;99.90;;;;;;5054641;28;20424;-56
2021/05/04 04:34:04;;;;;;;6.37;5.67;;;8.60;99.90;;;;;;5054510;28;20455;-56
2021/05/04 04:36:30;;;;;;;6.73;5.70;;;8.60;99.90;;;;;;5054083;28;20532;-55
2021/05/04 04:38:56;;;;;;;8.00;6.60;;;8.60;99.90;;;;;;5053991;28;20469;-54
2021/05/04 04:41:22;;;;;;;8.50;5.73;;;8.60;99.90;;;;;;5054254;28;20506;-56
2021/05/04 04:43:49;;;;;;;6.53;5.83;;;8.60;99.90;;;;;;5053653;28;20452;-52
2021/05/04 04:46:16;;;;;;;6.63;5.50;;;8.60;99.90;;;;;;5053918;28;20440;-51
2021/05/04 04:48:42;;;;;;;9.40;6.17;;;8.70;99.90;;;;;;5053788;28;20464;-55
2021/05/04 04:51:10;;;;;;;8.80;6.03;;;8.70;99.90;;;;;;5054457;28;20462;-55
2021/05/04 04:53:36;;;;;;;7.93;6.37;;;8.70;99.90;;;;;;5054088;28;20436;-54
2021/05/04 04:56:02;;;;;;;7.43;6.33;;;8.70;99.90;;;;;;5052460;28;20481;-52
2021/05/04 04:58:28;;;;;;;7.20;6.10;;;8.80;99.90;;;;;;5049629;28;20457;-53
2021/05/04 05:00:54;;;;;;;8.43;5.50;;;8.80;99.90;;;;;;5049114;28;20460;-51
2021/05/04 05:03:24;;;;;;;8.40;5.37;;;8.80;99.90;;;;;;5048940;28;20459;-50
2021/05/04 05:05:51;;;;;;;7.30;5.90;;;8.90;99.90;;;;;;5048902;28;20471;-54
2021/05/04 05:08:17;;;;;;;6.80;5.60;;;8.90;99.90;;;;;;5048629;28;20458;-54
2021/05/04 05:10:44;;;;;;;6.63;5.40;;;9.00;99.90;;;;;;5048892;28;20526;-54
2021/05/04 05:13:11;;;;;;;6.63;5.67;;;8.90;99.90;;;;;;5051107;28;20448;-52
2021/05/04 05:15:39;;;;;;;9.80;5.30;;;8.90;99.90;;;;;;5052554;28;20448;-52
2021/05/04 05:18:06;;;;;;;12.13;6.10;;;9.00;99.90;;;;;;5053741;28;20456;-53
2021/05/04 05:20:33;;;;;;;9.90;5.90;;;8.90;99.90;;;;;;5053700;28;20464;-53
2021/05/04 05:22:59;;;;;;;7.00;5.97;;;9.00;99.90;;;;;;5053498;28;20520;-51
2021/05/04 05:25:26;;;;;;;9.40;6.17;;;9.00;99.90;;;;;;5053751;28;20444;-51
2021/05/04 05:27:52;;;;;;;7.30;5.70;;;9.00;99.90;;;;;;5051003;28;20913;-54
2021/05/04 05:30:19;;;;;;;7.70;5.20;;;9.00;99.90;;;;;;5046979;28;20457;-56
2021/05/04 05:32:45;;;;;;;7.83;5.53;;;9.10;99.90;;;;;;5042579;28;20451;-51
2021/05/04 05:35:11;;;;;;;6.57;5.07;;;9.10;99.90;;;;;;5047528;28;20460;-52
2021/05/04 05:37:38;;;;;;;7.27;5.10;;;9.20;99.90;;;;;;5051779;28;20889;-50
2021/05/04 05:40:06;;;;;;;9.53;6.67;;;9.20;99.90;;;;;;5051429;28;20436;-54
2021/05/04 05:42:32;;;;;;;7.97;5.87;;;9.30;99.90;;;;;;5050929;28;20486;-50
2021/05/04 05:44:58;;;;;;;6.53;5.93;;;9.40;99.90;;;;;;5042743;28;20444;-52
2021/05/04 05:47:25;;;;;;;8.43;5.80;;;9.50;99.90;;;;;;5042155;28;20474;-53
2021/05/04 05:49:51;;;;;;;7.73;5.73;;;9.60;99.90;;;;;;5041596;28;20467;-54
2021/05/04 05:52:17;;;;;;;6.70;5.70;;;9.70;99.90;;;;;;5042117;28;20452;-52
2021/05/04 05:54:44;;;;;;;8.00;5.80;;;9.70;99.90;;;;;;5045279;28;20521;-53
2021/05/04 05:57:10;;;;;;;8.90;5.80;;;9.80;99.90;;;;;;5040581;28;20480;-48
2021/05/04 05:59:36;;;;;;;8.13;5.63;;;9.90;99.90;;;;;;5039967;28;20464;-56
2021/05/04 06:02:03;;;;;;;7.20;5.27;;;9.90;99.90;;;;;;5040060;28;20847;-53
2021/05/04 06:04:29;;;;;;;11.53;5.70;;;10.00;99.90;;;;;;5041087;28;20480;-56
2021/05/04 06:06:56;;;;;;;6.77;5.40;;;10.10;99.90;;;;;;5040866;28;20445;-52
2021/05/04 06:09:22;;;;;;;9.43;6.20;;;10.20;99.90;;;;;;5021952;28;20557;-56
2021/05/04 06:11:49;;;;;;;7.40;5.40;;;10.30;99.90;;;;;;5020668;28;20445;-56
2021/05/04 06:14:16;;;;;;;9.80;6.60;;;10.40;99.90;;;;;;5020590;28;20579;-56
2021/05/04 06:16:42;;;;;;;6.70;4.27;;;10.50;99.90;;;;;;5021356;28;20484;-54
2021/05/04 06:19:09;;;;;;;13.00;7.73;;;10.70;99.90;;;;;;5019992;28;20438;-52
2021/05/04 06:21:35;;;;;;;11.73;4.33;;;10.80;99.90;;;;;;5017850;28;20449;-54
2021/05/04 06:24:01;;;;;;;9.40;6.10;;;11.10;99.90;;;;;;5022798;28;20890;-49
2021/05/04 06:26:28;;;;;;;6.30;5.30;;;11.20;99.90;;;;;;5032959;28;20440;-52
2021/05/04 06:28:55;;;;;;;8.83;5.30;;;11.30;99.90;;;;;;5027705;28;20516;-52
2021/05/04 06:31:21;;;;;;;7.57;4.23;;;11.40;99.90;;;;;;5024888;28;20452;-57
2021/05/04 06:33:48;;;;;;;6.83;4.93;;;11.40;99.90;;;;;;5020293;28;20533;-56
2021/05/04 06:36:14;;;;;;;7.40;5.60;;;11.60;99.90;;;;;;5019535;28;20481;-49
2021/05/04 06:38:41;;;;;;;5.63;3.80;;;11.70;99.90;;;;;;5019991;28;20585;-54
2021/05/04 06:41:07;;;;;;;8.40;5.50;;;11.80;99.90;;;;;;5020226;28;20457;-52
2021/05/04 06:43:34;;;;;;;6.90;4.00;;;11.90;99.90;;;;;;5020777;28;20452;-55
2021/05/04 06:46:03;;;;;;;6.83;5.27;;;12.00;99.90;;;;;;5023418;28;20511;-50
2021/05/04 06:48:29;;;;;;;7.93;5.17;;;12.10;99.90;;;;;;5020441;28;20461;-49
2021/05/04 06:50:57;;;;;;;9.27;4.50;;;12.30;99.90;;;;;;5027941;28;20472;-53
2021/05/04 06:53:23;;;;;;;7.03;5.63;;;12.30;99.90;;;;;;5035513;28;20556;-58
2021/05/04 06:55:50;;;;;;;6.97;5.00;;;12.40;99.90;;;;;;5043189;28;20440;-59
2021/05/04 06:58:16;;;;;;;9.13;4.80;;;12.40;99.90;;;;;;5038075;28;20484;-53
2021/05/04 07:00:43;;;;;;;9.30;5.70;;;12.40;99.90;;;;;;5043871;28;20488;-55
2021/05/04 07:03:11;;;;;;;7.30;4.33;;;12.50;99.90;;;;;;5036181;28;20472;-57
2021/05/04 07:05:37;;;;;;;7.53;5.30;;;12.60;99.90;;;;;;5028767;28;20448;-55
2021/05/04 07:08:05;;;;;;;4.57;3.70;;;12.70;99.90;;;;;;5025616;28;20461;-52
2021/05/04 07:10:31;;;;;;;7.20;4.45;;;12.70;99.90;;;;;;5030047;28;20473;-55
2021/05/04 07:12:59;;;;;;;6.77;4.77;;;12.80;99.90;;;;;;5033462;28;20211;-56
2021/05/04 07:15:25;;;;;;;8.33;5.20;;;12.80;99.90;;;;;;5030132;28;20542;-51
2021/05/04 07:17:52;;;;;;;5.33;3.97;;;12.80;99.90;;;;;;5027750;28;21042;-54
2021/05/04 07:20:21;;;;;;;6.10;4.43;;;12.90;99.90;;;;;;5030312;28;20480;-56
2021/05/04 07:22:52;;;;;;;4.80;3.60;;;12.90;99.90;;;;;;5028835;28;20452;-54
2021/05/04 07:25:18;;;;;;;6.67;4.43;;;12.80;99.90;;;;;;5024336;28;20826;-55
2021/05/04 07:27:44;;;;;;;8.33;4.90;;;12.90;99.90;;;;;;5016217;28;20488;-56
2021/05/04 07:30:11;;;;;;;8.23;4.77;;;12.80;99.90;;;;;;5028736;28;20472;-56
2021/05/04 07:32:38;;;;;;;6.00;4.33;;;12.80;99.90;;;;;;5020528;28;20471;-53
2021/05/04 07:35:05;;;;;;;5.07;4.13;;;12.70;99.90;;;;;;5025093;28;20843;-57
2021/05/04 07:37:35;;;;;;;6.07;4.73;;;12.80;99.90;;;;;;5021136;28;20545;-55
2021/05/04 07:40:02;;;;;;;6.03;4.83;;;12.80;99.90;;;;;;5028170;28;20460;-53
2021/05/04 07:42:29;;;;;;;4.60;4.20;;;12.70;99.90;;;;;;5026639;28;20536;-52
2021/05/04 07:44:55;;;;;;;31.53;16.57;;;12.70;99.90;;;;;;5022124;28;20508;-53
2021/05/04 07:47:22;;;;;;;37.87;19.63;;;12.70;99.90;;;;;;5027101;28;20457;-51
2021/05/04 07:49:48;;;;;;;6.83;5.30;;;12.50;99.90;;;;;;5020231;28;20834;-50
2021/05/04 07:52:15;;;;;;;4.60;3.73;;;12.40;99.90;;;;;;5025425;28;20848;-49
2021/05/04 07:54:43;;;;;;;5.43;4.23;;;12.10;99.90;;;;;;5031918;28;20448;-54
2021/05/04 07:57:11;;;;;;;5.63;4.40;;;11.90;99.90;;;;;;5028500;28;20501;-52
2021/05/04 07:59:38;;;;;;;4.47;3.97;;;11.60;99.90;;;;;;5027000;28;20569;-50
2021/05/04 08:02:04;;;;;;;5.80;5.17;;;11.40;99.90;;;;;;5039538;28;20926;-49
2021/05/04 08:04:31;;;;;;;5.33;4.83;;;11.30;99.90;;;;;;5024826;28;20592;-52
2021/05/04 08:07:00;;;;;;;5.10;4.60;;;11.10;99.90;;;;;;5025182;28;20455;-51
2021/05/04 08:09:27;;;;;;;5.80;4.33;;;11.00;99.90;;;;;;5024025;28;20495;-53
2021/05/04 08:11:55;;;;;;;5.43;4.80;;;10.90;99.90;;;;;;5026556;28;20456;-49
2021/05/04 08:14:23;;;;;;;6.30;4.40;;;10.90;99.90;;;;;;5032531;28;20522;-52
2021/05/04 08:16:49;;;;;;;5.60;4.80;;;10.90;99.90;;;;;;5031094;28;20583;-50
2021/05/04 08:19:16;;;;;;;6.87;5.30;;;11.00;99.90;;;;;;5023127;28;20488;-52
2021/05/04 08:21:43;;;;;;;6.90;5.37;;;11.10;99.90;;;;;;5029801;28;20464;-53
2021/05/04 08:24:11;;;;;;;7.20;5.33;;;11.20;99.90;;;;;;5024232;28;20806;-53
2021/05/04 08:26:38;;;;;;;5.63;4.00;;;11.30;99.90;;;;;;5028403;28;20477;-54
2021/05/04 08:29:05;;;;;;;6.00;4.47;;;11.40;99.90;;;;;;5028662;28;20447;-53
2021/05/04 08:31:32;;;;;;;5.70;4.37;;;11.40;99.90;;;;;;5034489;28;20484;-50
2021/05/04 08:33:58;;;;;;;10.57;4.80;;;11.40;99.90;;;;;;5028503;28;20917;-49
2021/05/04 08:36:26;;;;;;;6.23;5.27;;;11.50;99.90;;;;;;5025751;28;20483;-54
2021/05/04 08:38:52;;;;;;;5.00;4.20;;;11.60;99.90;;;;;;5026731;28;20460;-50
2021/05/04 08:41:19;;;;;;;5.90;5.10;;;11.80;99.90;;;;;;5031294;28;20452;-54
2021/05/04 08:43:47;;;;;;;5.70;4.97;;;11.90;99.90;;;;;;5023101;28;20952;-55
2021/05/04 08:46:15;;;;;;;5.90;4.20;;;12.00;99.90;;;;;;5031782;28;20479;-50
2021/05/04 08:48:45;;;;;;;4.97;4.47;;;11.90;99.90;;;;;;5037677;28;20459;-50
2021/05/04 08:51:13;;;;;;;6.53;4.77;;;12.00;99.90;;;;;;5024567;28;20447;-52
2021/05/04 08:53:40;;;;;;;8.03;5.97;;;12.00;99.90;;;;;;5021058;28;20448;-54
2021/05/04 08:56:08;;;;;;;5.47;4.50;;;12.00;99.90;;;;;;5029454;28;20480;-49
2021/05/04 08:58:34;;;;;;;4.50;3.80;;;12.10;99.90;;;;;;5021380;28;20465;-49
2021/05/04 09:01:01;;;;;;;5.30;4.53;;;12.10;99.90;;;;;;5027771;28;20932;-49
2021/05/04 09:03:33;;;;;;;4.03;3.63;;;12.10;99.90;;;;;;5024847;28;20518;-51
2021/05/04 09:06:02;;;;;;;6.00;4.53;;;12.20;99.90;;;;;;5029553;28;20484;-53
2021/05/04 09:08:40;;;;;;;8.30;3.90;;;12.60;99.90;;;;;;5037538;28;20962;-53
2021/05/04 09:11:25;;;;;;;12.37;3.97;;;12.90;99.90;;;;;;5029987;28;20815;-53
2021/05/04 09:13:57;;;;;;;4.47;3.67;;;13.10;99.90;;;;;;5029401;28;20939;-49
2021/05/04 09:16:29;;;;;;;4.70;3.70;;;13.20;99.90;;;;;;5020177;28;20497;-47
2021/05/04 09:19:16;;;;;;;4.80;3.83;;;13.30;99.90;;;;;;5029062;28;20456;-54
2021/05/04 09:21:44;;;;;;;4.70;3.87;;;13.40;99.90;;;;;;5023844;28;20507;-48
2021/05/04 09:24:25;;;;;;;5.30;4.00;;;13.40;99.90;;;;;;5029553;28;20453;-52
2021/05/04 09:27:00;;;;;;;3.70;3.33;;;13.40;99.90;;;;;;5024633;28;20449;-53
2021/05/04 09:29:32;;;;;;;6.53;3.80;;;13.20;99.90;;;;;;5032123;28;20448;-52
2021/05/04 09:32:19;;;;;;;4.67;4.27;;;13.10;99.90;;;;;;5020856;28;20461;-52
2021/05/04 09:34:52;;;;;;;5.10;3.00;;;13.20;99.90;;;;;;5037078;28;20452;-54
2021/05/04 09:37:43;;;;;;;3.30;3.00;;;13.30;99.90;;;;;;5028320;28;20476;-51
2021/05/04 09:40:25;;;;;;;3.83;2.90;;;13.60;99.90;;;;;;5029607;28;20452;-48
2021/05/04 09:43:06;;;;;;;3.53;3.23;;;14.40;99.90;;;;;;5023161;28;20449;-52
2021/05/04 09:45:34;;;;;;;4.37;2.40;;;15.40;99.90;;;;;;5027780;28;20461;-48
2021/05/04 09:48:12;;;;;;;3.93;3.53;;;15.80;99.90;;;;;;5031865;28;20956;-52
2021/05/04 09:50:59;;;;;;;4.47;2.60;;;16.40;99.40;;;;;;5023012;28;20449;-52
2021/05/04 09:53:34;;;;;;;4.80;2.70;;;16.90;96.90;;;;;;5029877;28;20440;-53
2021/05/04 09:56:02;;;;;;;2.60;2.40;;;17.10;94.50;;;;;;5032268;28;20925;-48
2021/05/04 09:58:36;;;;;;;5.17;4.07;;;17.10;93.00;;;;;;5022503;28;20480;-48
2021/05/04 10:01:04;;;;;;;4.10;3.33;;;17.20;92.40;;;;;;5032806;28;20530;-47
2021/05/04 10:03:31;;;;;;;5.10;3.43;;;17.80;91.10;;;;;;5027824;28;20848;-49
2021/05/04 10:06:00;;;;;;;7.30;3.87;;;18.40;85.10;;;;;;5027020;28;20460;-47
2021/05/04 10:08:28;;;;;;;2.53;2.33;;;18.60;82.90;;;;;;5020295;28;20441;-52
2021/05/04 10:10:58;;;;;;;8.30;3.77;;;18.40;79.10;;;;;;5020217;28;20457;-49
2021/05/04 10:13:27;;;;;;;3.50;3.00;;;18.00;80.20;;;;;;5028598;28;20534;-48
2021/05/04 10:15:54;;;;;;;2.67;2.43;;;17.80;81.10;;;;;;5019622;28;20461;-52
2021/05/04 10:18:22;;;;;;;4.40;2.50;;;17.60;80.30;;;;;;5031312;28;20490;-52
2021/05/04 10:20:49;;;;;;;7.40;2.33;;;17.30;81.20;;;;;;5035944;28;20448;-49
2021/05/04 10:23:16;;;;;;;7.00;2.87;;;17.00;80.20;;;;;;5024632;28;20917;-45
2021/05/04 10:25:43;;;;;;;3.97;3.10;;;17.00;80.00;;;;;;5027470;28;20455;-46
2021/05/04 10:28:12;;;;;;;5.60;2.50;;;17.10;79.40;;;;;;5028037;28;20925;-52
2021/05/04 10:30:39;;;;;;;6.50;2.90;;;17.00;78.50;;;;;;5021822;28;20448;-49
2021/05/04 10:33:10;;;;;;;2.20;1.73;;;16.70;79.40;;;;;;5026275;28;20448;-46
2021/05/04 10:35:38;;;;;;;6.20;2.50;;;16.40;80.60;;;;;;5026553;28;20469;-48
2021/05/04 10:38:07;;;;;;;4.43;2.53;;;16.20;80.80;;;;;;5025732;28;20491;-49
2021/05/04 10:40:36;;;;;;;3.73;2.33;;;16.20;81.30;;;;;;5031037;28;20451;-52
2021/05/04 10:43:25;;;;;;;4.50;2.50;;;16.10;80.90;;;;;;5021380;28;20453;-53
2021/05/04 10:45:52;;;;;;;5.87;2.30;;;16.00;81.70;;;;;;5017585;28;21103;-51
2021/05/04 10:48:40;;;;;;;6.53;2.00;;;15.70;82.50;;;;;;5024710;28;20452;-51
2021/05/04 10:51:11;;;;;;;4.70;2.93;;;15.60;83.00;;;;;;5024756;28;20449;-48
2021/05/04 10:54:02;;;;;;;5.30;2.93;;;15.60;84.30;;;;;;5021875;28;20540;-51
2021/05/04 10:56:35;;;;;;;5.80;3.00;;;15.70;84.70;;;;;;5024008;28;20508;-52
2021/05/04 10:59:03;;;;;;;4.50;2.30;;;15.50;84.30;;;;;;5025722;28;20500;-46
2021/05/04 11:01:29;;;;;;;8.10;2.27;;;15.50;85.40;;;;;;5021861;28;20455;-52
2021/05/04 11:03:57;;;;;;;3.43;1.93;;;15.50;86.40;;;;;;5017781;28;20485;-48
2021/05/04 11:06:49;;;;;;;6.30;3.67;;;15.50;88.50;;;;;;5022210;28;20475;-50
2021/05/04 11:09:17;;;;;;;6.90;3.33;;;15.50;89.30;;;;;;5029898;28;20449;-54
2021/05/04 11:11:47;;;;;;;2.90;2.10;;;15.60;89.30;;;;;;5025428;28;20488;-47
2021/05/04 11:14:29;;;;;;;4.70;2.50;;;15.80;89.00;;;;;;5021730;28;20737;-51
2021/05/04 11:17:21;;;;;;;8.33;2.40;;;16.00;88.80;;;;;;5024069;28;20960;-47
2021/05/04 11:19:48;;;;;;;2.70;2.50;;;16.20;87.40;;;;;;5022139;28;20480;-49
2021/05/04 11:22:25;;;;;;;8.03;3.20;;;16.20;86.80;;;;;;5026455;28;20472;-49
2021/05/04 11:24:56;;;;;;;6.57;2.20;;;16.10;87.70;;;;;;5022197;28;20779;-51
2021/05/04 11:27:33;;;;;;;10.03;2.47;;;16.00;88.40;;;;;;5033381;28;20536;-45
2021/05/04 11:30:03;;;;;;;9.03;2.83;;;16.10;89.30;;;;;;5034649;28;20448;-51
2021/05/04 11:32:44;;;;;;;3.00;2.47;;;16.30;89.40;;;;;;5020728;28;20548;-51
2021/05/04 11:35:13;;;;;;;5.27;1.70;;;16.20;88.90;;;;;;5027802;28;20937;-52
2021/05/04 11:37:44;;;;;;;3.00;1.60;;;16.10;89.60;;;;;;5020642;28;20503;-46
2021/05/04 11:40:16;;;;;;;9.33;2.37;;;16.10;90.40;;;;;;5026091;28;20903;-49
2021/05/04 11:42:45;;;;;;;6.70;2.37;;;16.10;90.60;;;;;;5019880;28;20552;-51
2021/05/04 11:45:13;;;;;;;2.60;2.00;;;16.00;89.60;;;;;;5030281;28;20448;-52
2021/05/04 11:47:41;;;;;;;2.93;2.07;;;15.80;89.90;;;;;;5035820;28;20436;-50
2021/05/04 11:50:10;;;;;;;2.70;2.07;;;15.70;90.20;;;;;;5036891;28;20448;-51
2021/05/04 11:52:38;;;;;;;5.87;1.90;;;15.40;90.50;;;;;;5036849;28;20448;-49
2021/05/04 11:55:07;;;;;;;6.33;3.23;;;15.30;90.50;;;;;;5039862;28;20941;-52
2021/05/04 11:57:34;;;;;;;3.83;2.83;;;15.20;91.00;;;;;;5038890;28;20545;-52
2021/05/04 12:00:03;;;;;;;2.90;2.07;;;15.20;90.90;;;;;;5037130;28;20460;-48
2021/05/04 12:02:30;;;;;;;5.07;2.57;;;15.10;91.10;;;;;;5036329;28;20440;-48
2021/05/04 12:04:57;;;;;;;5.30;2.90;;;15.00;91.50;;;;;;5037162;28;20456;-50
2021/05/04 12:07:39;;;;;;;4.50;2.20;;;14.90;91.80;;;;;;5037261;28;20499;-49
2021/05/04 12:10:20;;;;;;;2.60;2.40;;;14.90;91.80;;;;;;5037373;28;20433;-49
2021/05/04 12:12:48;;;;;;;2.47;2.10;;;14.90;92.00;;;;;;5036984;28;20451;-54
2021/05/04 12:15:18;;;;;;;1.93;1.77;;;14.90;92.30;;;;;;5036989;28;20448;-49
2021/05/04 12:17:54;;;;;;;3.40;1.80;;;14.90;92.00;;;;;;5036960;28;20615;-51
2021/05/04 12:20:22;;;;;;;2.57;2.00;;;14.80;92.20;;;;;;5037267;28;20804;-51
2021/05/04 12:22:50;;;;;;;3.50;2.00;;;14.70;92.70;;;;;;5041007;28;20483;-50
2021/05/04 12:25:21;;;;;;;3.43;2.07;;;14.80;93.30;;;;;;5039010;28;20479;-54
2021/05/04 12:27:48;;;;;;;5.10;2.10;;;14.80;92.50;;;;;;5040313;28;20436;-50
2021/05/04 12:30:20;;;;;;;3.90;2.10;;;14.80;92.90;;;;;;5040853;28;20481;-49
2021/05/04 12:32:47;;;;;;;10.13;2.70;;;14.80;92.90;;;;;;5040435;28;20455;-50
2021/05/04 12:35:16;;;;;;;4.17;2.20;;;14.70;92.90;;;;;;5040456;28;20451;-50
2021/05/04 12:37:43;;;;;;;2.37;1.90;;;14.70;92.90;;;;;;5040632;28;20502;-51
2021/05/04 12:40:18;;;;;;;3.60;2.50;;;14.70;93.10;;;;;;5040451;28;20452;-50
2021/05/04 12:42:47;;;;;;;2.23;2.03;;;14.80;93.00;;;;;;5040661;28;20478;-51
2021/05/04 12:45:16;;;;;;;3.20;2.30;;;14.80;92.90;;;;;;5040074;28;20522;-51
2021/05/04 12:47:53;;;;;;;3.17;1.70;;;14.90;93.00;;;;;;5040077;28;20988;-52
2021/05/04 12:50:30;;;;;;;2.63;2.17;;;14.90;93.10;;;;;;5039594;28;20459;-52
2021/05/04 12:52:57;;;;;;;5.43;1.83;;;15.00;93.70;;;;;;5040248;28;20459;-52
2021/05/04 12:55:24;;;;;;;2.30;2.10;;;15.20;93.20;;;;;;5039745;28;20439;-50